<?xml version="1.0" encoding="UTF-8" standalone="no" ?>
<gpx xmlns="http://www.topografix.com/GPX/1/1" xmlns:xsi="http://www.w3.org/2001/XMLSchema-instance" xsi:schemaLocation="http://www.topografix.com/GPX/1/1 http://www.topografix.com/GPX/1/1/gpx.xsd" version="1.1" creator="VisuGPX - https://www.visugpx.com">
  <metadata>
    <name>23 Juin - Balade dans Marrakech</name>
    <desc><![CDATA[Marrakech
Visite guidée de samedi
et balade dans le quartier Juif et les souks]]></desc>
  </metadata>
  <trk>
    <name><![CDATA[2018-06-23 12:31:38]]></name>
    <trkseg>
      <trkpt lat="31.62446" lon="-7.99212">
        <ele>463.73</ele>
        <time>2018-06-23T08:11:54Z</time>
      </trkpt>
      <trkpt lat="31.6244" lon="-7.99261">
        <ele>462.95</ele>
        <time>2018-06-23T08:12:54Z</time>
      </trkpt>
      <trkpt lat="31.62438" lon="-7.99262">
        <ele>462.68</ele>
        <time>2018-06-23T08:13:54Z</time>
      </trkpt>
      <trkpt lat="31.62436" lon="-7.99262">
        <ele>462.72</ele>
        <time>2018-06-23T08:14:54Z</time>
      </trkpt>
      <trkpt lat="31.62435" lon="-7.9926">
        <ele>462.65</ele>
        <time>2018-06-23T08:15:54Z</time>
      </trkpt>
      <trkpt lat="31.62435" lon="-7.99261">
        <ele>462.37</ele>
        <time>2018-06-23T08:16:54Z</time>
      </trkpt>
      <trkpt lat="31.62437" lon="-7.99262">
        <ele>462.46</ele>
        <time>2018-06-23T08:17:54Z</time>
      </trkpt>
      <trkpt lat="31.62435" lon="-7.9926">
        <ele>462.35</ele>
        <time>2018-06-23T08:18:54Z</time>
      </trkpt>
      <trkpt lat="31.62435" lon="-7.99258">
        <ele>462.31</ele>
        <time>2018-06-23T08:19:54Z</time>
      </trkpt>
      <trkpt lat="31.62435" lon="-7.99255">
        <ele>462.51</ele>
        <time>2018-06-23T08:20:54Z</time>
      </trkpt>
      <trkpt lat="31.62436" lon="-7.99261">
        <ele>462.63</ele>
        <time>2018-06-23T08:21:54Z</time>
      </trkpt>
      <trkpt lat="31.62434" lon="-7.99258">
        <ele>462.75</ele>
        <time>2018-06-23T08:22:54Z</time>
      </trkpt>
      <trkpt lat="31.62436" lon="-7.9926">
        <ele>462.9</ele>
        <time>2018-06-23T08:23:54Z</time>
      </trkpt>
      <trkpt lat="31.62437" lon="-7.9926">
        <ele>462.78</ele>
        <time>2018-06-23T08:24:54Z</time>
      </trkpt>
      <trkpt lat="31.62436" lon="-7.99262">
        <ele>462.86</ele>
        <time>2018-06-23T08:25:54Z</time>
      </trkpt>
      <trkpt lat="31.62437" lon="-7.99261">
        <ele>462.91</ele>
        <time>2018-06-23T08:26:54Z</time>
      </trkpt>
      <trkpt lat="31.62436" lon="-7.99259">
        <ele>462.81</ele>
        <time>2018-06-23T08:27:54Z</time>
      </trkpt>
      <trkpt lat="31.62436" lon="-7.99256">
        <ele>462.97</ele>
        <time>2018-06-23T08:28:54Z</time>
      </trkpt>
      <trkpt lat="31.62438" lon="-7.99262">
        <ele>462.75</ele>
        <time>2018-06-23T08:29:54Z</time>
      </trkpt>
      <trkpt lat="31.6242" lon="-7.99284">
        <ele>462.41</ele>
        <time>2018-06-23T08:30:54Z</time>
      </trkpt>
      <trkpt lat="31.62418" lon="-7.99284">
        <ele>462.36</ele>
        <time>2018-06-23T08:31:54Z</time>
      </trkpt>
      <trkpt lat="31.62416" lon="-7.99283">
        <ele>462.52</ele>
        <time>2018-06-23T08:32:54Z</time>
      </trkpt>
      <trkpt lat="31.62419" lon="-7.99282">
        <ele>462.68</ele>
        <time>2018-06-23T08:33:54Z</time>
      </trkpt>
      <trkpt lat="31.62412" lon="-7.99283">
        <ele>462.74</ele>
        <time>2018-06-23T08:34:56Z</time>
      </trkpt>
      <trkpt lat="31.6242" lon="-7.99286">
        <ele>462.64</ele>
        <time>2018-06-23T08:35:56Z</time>
      </trkpt>
      <trkpt lat="31.62399" lon="-7.99305">
        <ele>462.57</ele>
        <time>2018-06-23T08:36:56Z</time>
      </trkpt>
      <trkpt lat="31.62397" lon="-7.99306">
        <ele>462.89</ele>
        <time>2018-06-23T08:37:56Z</time>
      </trkpt>
      <trkpt lat="31.62393" lon="-7.99314">
        <ele>462.84</ele>
        <time>2018-06-23T08:38:56Z</time>
      </trkpt>
      <trkpt lat="31.62391" lon="-7.9931">
        <ele>462.76</ele>
        <time>2018-06-23T08:39:56Z</time>
      </trkpt>
      <trkpt lat="31.62364" lon="-7.99302">
        <ele>463.47</ele>
        <time>2018-06-23T08:40:56Z</time>
      </trkpt>
      <trkpt lat="31.62363" lon="-7.99299">
        <ele>463.7</ele>
        <time>2018-06-23T08:41:56Z</time>
      </trkpt>
      <trkpt lat="31.62367" lon="-7.99303">
        <ele>463.66</ele>
        <time>2018-06-23T08:42:56Z</time>
      </trkpt>
      <trkpt lat="31.62361" lon="-7.993">
        <ele>463.49</ele>
        <time>2018-06-23T08:43:56Z</time>
      </trkpt>
      <trkpt lat="31.62344" lon="-7.99302">
        <ele>463.32</ele>
        <time>2018-06-23T08:44:57Z</time>
      </trkpt>
      <trkpt lat="31.62344" lon="-7.99298">
        <ele>463.65</ele>
        <time>2018-06-23T08:45:58Z</time>
      </trkpt>
      <trkpt lat="31.62342" lon="-7.99304">
        <ele>463.72</ele>
        <time>2018-06-23T08:46:58Z</time>
      </trkpt>
      <trkpt lat="31.62351" lon="-7.99294">
        <ele>463.89</ele>
        <time>2018-06-23T08:47:59Z</time>
      </trkpt>
      <trkpt lat="31.62344" lon="-7.99281">
        <ele>463.61</ele>
        <time>2018-06-23T08:48:59Z</time>
      </trkpt>
      <trkpt lat="31.62342" lon="-7.99306">
        <ele>463.43</ele>
        <time>2018-06-23T08:50:00Z</time>
      </trkpt>
      <trkpt lat="31.62347" lon="-7.99294">
        <ele>463.43</ele>
        <time>2018-06-23T08:51:00Z</time>
      </trkpt>
      <trkpt lat="31.62344" lon="-7.99292">
        <ele>463.52</ele>
        <time>2018-06-23T08:52:01Z</time>
      </trkpt>
      <trkpt lat="31.62344" lon="-7.99298">
        <ele>463.55</ele>
        <time>2018-06-23T08:53:01Z</time>
      </trkpt>
      <trkpt lat="31.62346" lon="-7.99296">
        <ele>463.54</ele>
        <time>2018-06-23T08:54:02Z</time>
      </trkpt>
      <trkpt lat="31.62322" lon="-7.99289">
        <ele>464.07</ele>
        <time>2018-06-23T08:55:02Z</time>
      </trkpt>
      <trkpt lat="31.62316" lon="-7.99282">
        <ele>463.95</ele>
        <time>2018-06-23T08:56:02Z</time>
      </trkpt>
      <trkpt lat="31.6231" lon="-7.99285">
        <ele>463.53</ele>
        <time>2018-06-23T08:57:02Z</time>
      </trkpt>
      <trkpt lat="31.62319" lon="-7.9929">
        <ele>463.74</ele>
        <time>2018-06-23T08:58:08Z</time>
      </trkpt>
      <trkpt lat="31.62311" lon="-7.99287">
        <ele>463.81</ele>
        <time>2018-06-23T08:59:08Z</time>
      </trkpt>
      <trkpt lat="31.62308" lon="-7.99287">
        <ele>463.6</ele>
        <time>2018-06-23T09:00:08Z</time>
      </trkpt>
      <trkpt lat="31.62301" lon="-7.99289">
        <ele>463.41</ele>
        <time>2018-06-23T09:01:08Z</time>
      </trkpt>
      <trkpt lat="31.62288" lon="-7.99274">
        <ele>463.81</ele>
        <time>2018-06-23T09:02:08Z</time>
      </trkpt>
      <trkpt lat="31.62259" lon="-7.99267">
        <ele>464.12</ele>
        <time>2018-06-23T09:03:08Z</time>
      </trkpt>
      <trkpt lat="31.62235" lon="-7.99258">
        <ele>464.39</ele>
        <time>2018-06-23T09:04:08Z</time>
      </trkpt>
      <trkpt lat="31.62225" lon="-7.99247">
        <ele>464.7</ele>
        <time>2018-06-23T09:05:08Z</time>
      </trkpt>
      <trkpt lat="31.6217" lon="-7.99239">
        <ele>464.33</ele>
        <time>2018-06-23T09:06:08Z</time>
      </trkpt>
      <trkpt lat="31.62118" lon="-7.99246">
        <ele>464.49</ele>
        <time>2018-06-23T09:07:08Z</time>
      </trkpt>
      <trkpt lat="31.62098" lon="-7.99226">
        <ele>464.65</ele>
        <time>2018-06-23T09:08:08Z</time>
      </trkpt>
      <trkpt lat="31.62044" lon="-7.9922">
        <ele>465.08</ele>
        <time>2018-06-23T09:09:08Z</time>
      </trkpt>
      <trkpt lat="31.62008" lon="-7.9923">
        <ele>464.76</ele>
        <time>2018-06-23T09:10:08Z</time>
      </trkpt>
      <trkpt lat="31.61987" lon="-7.99196">
        <ele>465.22</ele>
        <time>2018-06-23T09:11:08Z</time>
      </trkpt>
      <trkpt lat="31.61946" lon="-7.99174">
        <ele>465.54</ele>
        <time>2018-06-23T09:12:08Z</time>
      </trkpt>
      <trkpt lat="31.61941" lon="-7.99186">
        <ele>465.93</ele>
        <time>2018-06-23T09:13:09Z</time>
      </trkpt>
      <trkpt lat="31.61931" lon="-7.99166">
        <ele>466.51</ele>
        <time>2018-06-23T09:14:09Z</time>
      </trkpt>
      <trkpt lat="31.6191" lon="-7.99151">
        <ele>466.59</ele>
        <time>2018-06-23T09:15:09Z</time>
      </trkpt>
      <trkpt lat="31.61912" lon="-7.99148">
        <ele>466.73</ele>
        <time>2018-06-23T09:16:09Z</time>
      </trkpt>
      <trkpt lat="31.61887" lon="-7.99143">
        <ele>466.65</ele>
        <time>2018-06-23T09:17:09Z</time>
      </trkpt>
      <trkpt lat="31.61834" lon="-7.99109">
        <ele>466.58</ele>
        <time>2018-06-23T09:18:09Z</time>
      </trkpt>
      <trkpt lat="31.61783" lon="-7.99097">
        <ele>466.95</ele>
        <time>2018-06-23T09:19:09Z</time>
      </trkpt>
      <trkpt lat="31.61756" lon="-7.99087">
        <ele>467.04</ele>
        <time>2018-06-23T09:20:09Z</time>
      </trkpt>
      <trkpt lat="31.61763" lon="-7.9906">
        <ele>467.66</ele>
        <time>2018-06-23T09:21:13Z</time>
      </trkpt>
      <trkpt lat="31.61753" lon="-7.99067">
        <ele>467.5</ele>
        <time>2018-06-23T09:22:13Z</time>
      </trkpt>
      <trkpt lat="31.61749" lon="-7.99042">
        <ele>467.33</ele>
        <time>2018-06-23T09:23:13Z</time>
      </trkpt>
      <trkpt lat="31.61755" lon="-7.98968">
        <ele>466.95</ele>
        <time>2018-06-23T09:24:13Z</time>
      </trkpt>
      <trkpt lat="31.61723" lon="-7.98945">
        <ele>466.82</ele>
        <time>2018-06-23T09:25:13Z</time>
      </trkpt>
      <trkpt lat="31.617" lon="-7.98921">
        <ele>467.19</ele>
        <time>2018-06-23T09:26:13Z</time>
      </trkpt>
      <trkpt lat="31.61693" lon="-7.9891">
        <ele>467.37</ele>
        <time>2018-06-23T09:27:13Z</time>
      </trkpt>
      <trkpt lat="31.61692" lon="-7.98907">
        <ele>467.44</ele>
        <time>2018-06-23T09:28:13Z</time>
      </trkpt>
      <trkpt lat="31.61692" lon="-7.98892">
        <ele>467.55</ele>
        <time>2018-06-23T09:29:13Z</time>
      </trkpt>
      <trkpt lat="31.61713" lon="-7.98874">
        <ele>467.04</ele>
        <time>2018-06-23T09:30:13Z</time>
      </trkpt>
      <trkpt lat="31.6171" lon="-7.98868">
        <ele>467.24</ele>
        <time>2018-06-23T09:31:13Z</time>
      </trkpt>
      <trkpt lat="31.61713" lon="-7.98861">
        <ele>467.28</ele>
        <time>2018-06-23T09:32:14Z</time>
      </trkpt>
      <trkpt lat="31.61749" lon="-7.9888">
        <ele>467.38</ele>
        <time>2018-06-23T09:33:38Z</time>
      </trkpt>
      <trkpt lat="31.61747" lon="-7.98883">
        <ele>467.43</ele>
        <time>2018-06-23T09:34:38Z</time>
      </trkpt>
      <trkpt lat="31.61713" lon="-7.98867">
        <ele>467.59</ele>
        <time>2018-06-23T09:35:39Z</time>
      </trkpt>
      <trkpt lat="31.61712" lon="-7.98865">
        <ele>467.75</ele>
        <time>2018-06-23T09:36:39Z</time>
      </trkpt>
      <trkpt lat="31.61716" lon="-7.98872">
        <ele>467.96</ele>
        <time>2018-06-23T09:37:39Z</time>
      </trkpt>
      <trkpt lat="31.61712" lon="-7.98882">
        <ele>467.72</ele>
        <time>2018-06-23T09:38:39Z</time>
      </trkpt>
      <trkpt lat="31.6172" lon="-7.98882">
        <ele>467.71</ele>
        <time>2018-06-23T09:39:39Z</time>
      </trkpt>
      <trkpt lat="31.61727" lon="-7.98879">
        <ele>467.71</ele>
        <time>2018-06-23T09:40:39Z</time>
      </trkpt>
      <trkpt lat="31.61712" lon="-7.98891">
        <ele>467.69</ele>
        <time>2018-06-23T09:41:50Z</time>
      </trkpt>
      <trkpt lat="31.61719" lon="-7.98888">
        <ele>467.71</ele>
        <time>2018-06-23T09:42:50Z</time>
      </trkpt>
      <trkpt lat="31.61723" lon="-7.98888">
        <ele>467.34</ele>
        <time>2018-06-23T09:43:50Z</time>
      </trkpt>
      <trkpt lat="31.61716" lon="-7.98885">
        <ele>467.71</ele>
        <time>2018-06-23T09:44:50Z</time>
      </trkpt>
      <trkpt lat="31.61705" lon="-7.98873">
        <ele>467.52</ele>
        <time>2018-06-23T09:45:50Z</time>
      </trkpt>
      <trkpt lat="31.61686" lon="-7.98867">
        <ele>467.41</ele>
        <time>2018-06-23T09:46:50Z</time>
      </trkpt>
      <trkpt lat="31.61704" lon="-7.98892">
        <ele>467.63</ele>
        <time>2018-06-23T09:48:39Z</time>
      </trkpt>
      <trkpt lat="31.6175" lon="-7.98909">
        <ele>466.64</ele>
        <time>2018-06-23T09:49:39Z</time>
      </trkpt>
      <trkpt lat="31.61725" lon="-7.98863">
        <ele>466.97</ele>
        <time>2018-06-23T09:50:39Z</time>
      </trkpt>
      <trkpt lat="31.61718" lon="-7.98857">
        <ele>466.79</ele>
        <time>2018-06-23T09:51:39Z</time>
      </trkpt>
      <trkpt lat="31.61729" lon="-7.98848">
        <ele>466.98</ele>
        <time>2018-06-23T09:52:39Z</time>
      </trkpt>
      <trkpt lat="31.61717" lon="-7.98848">
        <ele>466.97</ele>
        <time>2018-06-23T09:53:39Z</time>
      </trkpt>
      <trkpt lat="31.61741" lon="-7.98827">
        <ele>467.39</ele>
        <time>2018-06-23T09:54:39Z</time>
      </trkpt>
      <trkpt lat="31.61734" lon="-7.98842">
        <ele>467.4</ele>
        <time>2018-06-23T09:55:39Z</time>
      </trkpt>
      <trkpt lat="31.61715" lon="-7.98876">
        <ele>468.27</ele>
        <time>2018-06-23T09:56:39Z</time>
      </trkpt>
      <trkpt lat="31.61731" lon="-7.98939">
        <ele>467.72</ele>
        <time>2018-06-23T09:57:39Z</time>
      </trkpt>
      <trkpt lat="31.61801" lon="-7.98941">
        <ele>468.3</ele>
        <time>2018-06-23T09:58:39Z</time>
      </trkpt>
      <trkpt lat="31.61817" lon="-7.98865">
        <ele>469.02</ele>
        <time>2018-06-23T09:59:39Z</time>
      </trkpt>
      <trkpt lat="31.61821" lon="-7.98864">
        <ele>469.54</ele>
        <time>2018-06-23T10:00:39Z</time>
      </trkpt>
      <trkpt lat="31.6181" lon="-7.98806">
        <ele>469.13</ele>
        <time>2018-06-23T10:01:39Z</time>
      </trkpt>
      <trkpt lat="31.61881" lon="-7.98767">
        <ele>468.37</ele>
        <time>2018-06-23T10:03:02Z</time>
      </trkpt>
      <trkpt lat="31.61877" lon="-7.98717">
        <ele>468.29</ele>
        <time>2018-06-23T10:04:02Z</time>
      </trkpt>
      <trkpt lat="31.61913" lon="-7.98702">
        <ele>468.3</ele>
        <time>2018-06-23T10:05:02Z</time>
      </trkpt>
      <trkpt lat="31.61933" lon="-7.98662">
        <ele>468.06</ele>
        <time>2018-06-23T10:06:02Z</time>
      </trkpt>
      <trkpt lat="31.61931" lon="-7.98612">
        <ele>468.1</ele>
        <time>2018-06-23T10:07:02Z</time>
      </trkpt>
      <trkpt lat="31.61957" lon="-7.98558">
        <ele>468.23</ele>
        <time>2018-06-23T10:08:02Z</time>
      </trkpt>
      <trkpt lat="31.61972" lon="-7.98544">
        <ele>468.34</ele>
        <time>2018-06-23T10:09:03Z</time>
      </trkpt>
      <trkpt lat="31.61973" lon="-7.98544">
        <ele>468.03</ele>
        <time>2018-06-23T10:10:03Z</time>
      </trkpt>
      <trkpt lat="31.61977" lon="-7.98534">
        <ele>468.11</ele>
        <time>2018-06-23T10:11:03Z</time>
      </trkpt>
      <trkpt lat="31.6197" lon="-7.98528">
        <ele>468.2</ele>
        <time>2018-06-23T10:12:03Z</time>
      </trkpt>
      <trkpt lat="31.61927" lon="-7.98509">
        <ele>468.62</ele>
        <time>2018-06-23T10:13:03Z</time>
      </trkpt>
      <trkpt lat="31.61925" lon="-7.98497">
        <ele>468.82</ele>
        <time>2018-06-23T10:14:03Z</time>
      </trkpt>
      <trkpt lat="31.61931" lon="-7.9851">
        <ele>468.78</ele>
        <time>2018-06-23T10:15:03Z</time>
      </trkpt>
      <trkpt lat="31.61981" lon="-7.98521">
        <ele>468.3</ele>
        <time>2018-06-23T10:16:03Z</time>
      </trkpt>
      <trkpt lat="31.61989" lon="-7.98509">
        <ele>468.08</ele>
        <time>2018-06-23T10:17:03Z</time>
      </trkpt>
      <trkpt lat="31.61991" lon="-7.98512">
        <ele>468.34</ele>
        <time>2018-06-23T10:18:04Z</time>
      </trkpt>
      <trkpt lat="31.61993" lon="-7.98509">
        <ele>468.07</ele>
        <time>2018-06-23T10:19:04Z</time>
      </trkpt>
      <trkpt lat="31.61989" lon="-7.98509">
        <ele>468.07</ele>
        <time>2018-06-23T10:20:04Z</time>
      </trkpt>
      <trkpt lat="31.6199" lon="-7.98512">
        <ele>468.09</ele>
        <time>2018-06-23T10:21:04Z</time>
      </trkpt>
      <trkpt lat="31.62006" lon="-7.98476">
        <ele>468.54</ele>
        <time>2018-06-23T10:22:04Z</time>
      </trkpt>
      <trkpt lat="31.62032" lon="-7.98429">
        <ele>468.16</ele>
        <time>2018-06-23T10:23:11Z</time>
      </trkpt>
      <trkpt lat="31.62008" lon="-7.98409">
        <ele>467.45</ele>
        <time>2018-06-23T10:24:12Z</time>
      </trkpt>
      <trkpt lat="31.62036" lon="-7.98398">
        <ele>468.82</ele>
        <time>2018-06-23T10:25:12Z</time>
      </trkpt>
      <trkpt lat="31.62009" lon="-7.98378">
        <ele>468.86</ele>
        <time>2018-06-23T10:26:13Z</time>
      </trkpt>
      <trkpt lat="31.6201" lon="-7.98362">
        <ele>468.63</ele>
        <time>2018-06-23T10:27:13Z</time>
      </trkpt>
      <trkpt lat="31.62012" lon="-7.98359">
        <ele>468.3</ele>
        <time>2018-06-23T10:28:13Z</time>
      </trkpt>
      <trkpt lat="31.61995" lon="-7.98369">
        <ele>469.03</ele>
        <time>2018-06-23T10:29:13Z</time>
      </trkpt>
      <trkpt lat="31.61964" lon="-7.98366">
        <ele>468.9</ele>
        <time>2018-06-23T10:30:13Z</time>
      </trkpt>
      <trkpt lat="31.61945" lon="-7.98346">
        <ele>468.48</ele>
        <time>2018-06-23T10:31:13Z</time>
      </trkpt>
      <trkpt lat="31.61954" lon="-7.98315">
        <ele>469.13</ele>
        <time>2018-06-23T10:32:13Z</time>
      </trkpt>
      <trkpt lat="31.61961" lon="-7.98278">
        <ele>470.43</ele>
        <time>2018-06-23T10:33:13Z</time>
      </trkpt>
      <trkpt lat="31.61943" lon="-7.98248">
        <ele>471.29</ele>
        <time>2018-06-23T10:34:14Z</time>
      </trkpt>
      <trkpt lat="31.61936" lon="-7.98249">
        <ele>472.09</ele>
        <time>2018-06-23T10:35:14Z</time>
      </trkpt>
      <trkpt lat="31.61938" lon="-7.98235">
        <ele>472.43</ele>
        <time>2018-06-23T10:36:14Z</time>
      </trkpt>
      <trkpt lat="31.61951" lon="-7.98172">
        <ele>471.97</ele>
        <time>2018-06-23T10:37:14Z</time>
      </trkpt>
      <trkpt lat="31.61967" lon="-7.98125">
        <ele>472.09</ele>
        <time>2018-06-23T10:38:14Z</time>
      </trkpt>
      <trkpt lat="31.61983" lon="-7.98081">
        <ele>472.2</ele>
        <time>2018-06-23T10:39:14Z</time>
      </trkpt>
      <trkpt lat="31.61999" lon="-7.98036">
        <ele>471.36</ele>
        <time>2018-06-23T10:40:14Z</time>
      </trkpt>
      <trkpt lat="31.62" lon="-7.98036">
        <ele>470.88</ele>
        <time>2018-06-23T10:41:14Z</time>
      </trkpt>
      <trkpt lat="31.61988" lon="-7.98069">
        <ele>472.22</ele>
        <time>2018-06-23T10:42:14Z</time>
      </trkpt>
      <trkpt lat="31.61967" lon="-7.98129">
        <ele>471.55</ele>
        <time>2018-06-23T10:43:14Z</time>
      </trkpt>
      <trkpt lat="31.61949" lon="-7.98197">
        <ele>472.05</ele>
        <time>2018-06-23T10:44:18Z</time>
      </trkpt>
      <trkpt lat="31.61951" lon="-7.98232">
        <ele>470.8</ele>
        <time>2018-06-23T10:45:19Z</time>
      </trkpt>
      <trkpt lat="31.61995" lon="-7.98244">
        <ele>470.16</ele>
        <time>2018-06-23T10:46:19Z</time>
      </trkpt>
      <trkpt lat="31.62006" lon="-7.9825">
        <ele>470.09</ele>
        <time>2018-06-23T10:47:19Z</time>
      </trkpt>
      <trkpt lat="31.6199" lon="-7.98245">
        <ele>470.22</ele>
        <time>2018-06-23T10:48:19Z</time>
      </trkpt>
      <trkpt lat="31.61956" lon="-7.98269">
        <ele>471.2</ele>
        <time>2018-06-23T10:49:19Z</time>
      </trkpt>
      <trkpt lat="31.61953" lon="-7.98295">
        <ele>470.33</ele>
        <time>2018-06-23T10:50:19Z</time>
      </trkpt>
      <trkpt lat="31.6194" lon="-7.98358">
        <ele>469.24</ele>
        <time>2018-06-23T10:51:19Z</time>
      </trkpt>
      <trkpt lat="31.61933" lon="-7.98388">
        <ele>470.21</ele>
        <time>2018-06-23T10:52:19Z</time>
      </trkpt>
      <trkpt lat="31.6198" lon="-7.98404">
        <ele>469.74</ele>
        <time>2018-06-23T10:53:19Z</time>
      </trkpt>
      <trkpt lat="31.62004" lon="-7.98427">
        <ele>469.76</ele>
        <time>2018-06-23T10:54:19Z</time>
      </trkpt>
      <trkpt lat="31.62027" lon="-7.98438">
        <ele>469.87</ele>
        <time>2018-06-23T10:55:19Z</time>
      </trkpt>
      <trkpt lat="31.6205" lon="-7.9845">
        <ele>470.11</ele>
        <time>2018-06-23T10:56:20Z</time>
      </trkpt>
      <trkpt lat="31.62058" lon="-7.98453">
        <ele>470.16</ele>
        <time>2018-06-23T10:57:20Z</time>
      </trkpt>
      <trkpt lat="31.62075" lon="-7.98453">
        <ele>470.42</ele>
        <time>2018-06-23T10:58:20Z</time>
      </trkpt>
      <trkpt lat="31.62089" lon="-7.98473">
        <ele>470.13</ele>
        <time>2018-06-23T10:59:20Z</time>
      </trkpt>
      <trkpt lat="31.62098" lon="-7.98484">
        <ele>470.21</ele>
        <time>2018-06-23T11:00:20Z</time>
      </trkpt>
      <trkpt lat="31.62069" lon="-7.98459">
        <ele>470.61</ele>
        <time>2018-06-23T11:01:20Z</time>
      </trkpt>
      <trkpt lat="31.62081" lon="-7.98481">
        <ele>470.69</ele>
        <time>2018-06-23T11:02:20Z</time>
      </trkpt>
      <trkpt lat="31.62076" lon="-7.98507">
        <ele>470.79</ele>
        <time>2018-06-23T11:03:20Z</time>
      </trkpt>
      <trkpt lat="31.62074" lon="-7.98485">
        <ele>470.27</ele>
        <time>2018-06-23T11:04:20Z</time>
      </trkpt>
      <trkpt lat="31.6207" lon="-7.98492">
        <ele>470.88</ele>
        <time>2018-06-23T11:05:29Z</time>
      </trkpt>
      <trkpt lat="31.62053" lon="-7.98488">
        <ele>470.69</ele>
        <time>2018-06-23T11:06:29Z</time>
      </trkpt>
      <trkpt lat="31.62051" lon="-7.98467">
        <ele>471.32</ele>
        <time>2018-06-23T11:07:29Z</time>
      </trkpt>
      <trkpt lat="31.62024" lon="-7.98516">
        <ele>471.18</ele>
        <time>2018-06-23T11:08:29Z</time>
      </trkpt>
      <trkpt lat="31.62011" lon="-7.9855">
        <ele>470.99</ele>
        <time>2018-06-23T11:09:29Z</time>
      </trkpt>
      <trkpt lat="31.62013" lon="-7.98559">
        <ele>470.21</ele>
        <time>2018-06-23T11:10:29Z</time>
      </trkpt>
      <trkpt lat="31.62031" lon="-7.98565">
        <ele>471.04</ele>
        <time>2018-06-23T11:11:30Z</time>
      </trkpt>
      <trkpt lat="31.62071" lon="-7.98585">
        <ele>470.93</ele>
        <time>2018-06-23T11:12:30Z</time>
      </trkpt>
      <trkpt lat="31.62115" lon="-7.98604">
        <ele>470.85</ele>
        <time>2018-06-23T11:13:30Z</time>
      </trkpt>
      <trkpt lat="31.62146" lon="-7.98621">
        <ele>470.78</ele>
        <time>2018-06-23T11:14:30Z</time>
      </trkpt>
      <trkpt lat="31.62195" lon="-7.98638">
        <ele>470.75</ele>
        <time>2018-06-23T11:15:30Z</time>
      </trkpt>
      <trkpt lat="31.6224" lon="-7.98657">
        <ele>470.69</ele>
        <time>2018-06-23T11:16:30Z</time>
      </trkpt>
      <trkpt lat="31.62276" lon="-7.98675">
        <ele>470.09</ele>
        <time>2018-06-23T11:17:30Z</time>
      </trkpt>
      <trkpt lat="31.62317" lon="-7.9869">
        <ele>469.6</ele>
        <time>2018-06-23T11:18:30Z</time>
      </trkpt>
      <trkpt lat="31.62354" lon="-7.98702">
        <ele>469.05</ele>
        <time>2018-06-23T11:19:30Z</time>
      </trkpt>
      <trkpt lat="31.62401" lon="-7.98716">
        <ele>468.46</ele>
        <time>2018-06-23T11:20:30Z</time>
      </trkpt>
      <trkpt lat="31.62445" lon="-7.98742">
        <ele>468.36</ele>
        <time>2018-06-23T11:21:30Z</time>
      </trkpt>
      <trkpt lat="31.62473" lon="-7.98751">
        <ele>468.65</ele>
        <time>2018-06-23T11:22:30Z</time>
      </trkpt>
      <trkpt lat="31.62522" lon="-7.9878">
        <ele>468.58</ele>
        <time>2018-06-23T11:23:30Z</time>
      </trkpt>
      <trkpt lat="31.62558" lon="-7.98825">
        <ele>468.59</ele>
        <time>2018-06-23T11:24:30Z</time>
      </trkpt>
      <trkpt lat="31.62535" lon="-7.98885">
        <ele>468.55</ele>
        <time>2018-06-23T11:25:30Z</time>
      </trkpt>
      <trkpt lat="31.62498" lon="-7.98961">
        <ele>468.49</ele>
        <time>2018-06-23T11:26:32Z</time>
      </trkpt>
      <trkpt lat="31.62507" lon="-7.98957">
        <ele>467.49</ele>
        <time>2018-06-23T11:27:32Z</time>
      </trkpt>
      <trkpt lat="31.62508" lon="-7.98956">
        <ele>467.47</ele>
        <time>2018-06-23T11:28:32Z</time>
      </trkpt>
      <trkpt lat="31.62506" lon="-7.98957">
        <ele>467.43</ele>
        <time>2018-06-23T11:29:32Z</time>
      </trkpt>
      <trkpt lat="31.62505" lon="-7.9896">
        <ele>468.58</ele>
        <time>2018-06-23T11:30:32Z</time>
      </trkpt>
      <trkpt lat="31.62507" lon="-7.98957">
        <ele>467.76</ele>
        <time>2018-06-23T11:31:32Z</time>
      </trkpt>
      <trkpt lat="31.62507" lon="-7.98957">
        <ele>467.86</ele>
        <time>2018-06-23T11:31:38Z</time>
      </trkpt>
    </trkseg>
  </trk>
</gpx>